Time;durP1;ratioP1;P1;durP2;ratioP2;P2;SDS_P1;SDS_P2;PMS_P1;PMS_P2;Temp;Humidity;BMP_temperature;BMP_pressure;BME280_temperature;BME280_humidity;BME280_pressure;Samples;Min_cycle;Max_cycle;Signal;HPM_P1;HPM_P2
2023/06/03 00:00:23;;;;;;;8.47;3.10;;;;;;;13.77;70.17;100712.69;5003698;28;20200;-68
2023/06/03 00:02:52;;;;;;;6.00;3.10;;;;;;;13.73;70.40;100709.13;5000515;28;20280;-68
2023/06/03 00:05:21;;;;;;;7.27;2.47;;;;;;;13.68;70.40;100702.88;4997544;28;20293;-68
2023/06/03 00:07:47;;;;;;;5.93;2.93;;;;;;;13.60;70.84;100699.25;5003244;28;20243;-68
2023/06/03 00:10:14;;;;;;;4.43;2.87;;;;;;;13.61;71.19;100702.81;4999215;28;20199;-70
2023/06/03 00:12:41;;;;;;;4.37;2.67;;;;;;;13.55;71.36;100693.03;4998753;28;20731;-69
2023/06/03 00:15:08;;;;;;;9.43;2.93;;;;;;;13.57;71.61;100704.56;5000560;28;20226;-69
2023/06/03 00:17:34;;;;;;;8.80;3.03;;;;;;;13.55;71.62;100700.13;5009288;28;20201;-68
2023/06/03 00:20:06;;;;;;;5.40;3.07;;;;;;;13.48;72.85;100704.53;5006828;28;20204;-70
2023/06/03 00:22:36;;;;;;;6.07;3.23;;;;;;;13.40;72.45;100700.94;5006079;28;20191;-70
2023/06/03 00:25:06;;;;;;;7.77;3.50;;;;;;;13.37;73.00;100707.13;5001977;28;20226;-70
2023/06/03 00:27:35;;;;;;;7.13;3.70;;;;;;;13.31;73.43;100706.19;5005541;28;20219;-69
2023/06/03 00:30:06;;;;;;;15.63;4.53;;;;;;;13.38;73.32;100703.56;5006971;28;20266;-68
2023/06/03 00:32:33;;;;;;;11.23;4.30;;;;;;;13.43;73.20;100700.94;4998371;28;20279;-69
2023/06/03 00:35:00;;;;;;;9.67;4.03;;;;;;;13.36;73.26;100699.13;5003017;28;20689;-69
2023/06/03 00:37:26;;;;;;;12.57;3.27;;;;;;;13.53;72.72;100699.22;5010137;28;20576;-69
2023/06/03 00:39:52;;;;;;;9.60;3.07;;;;;;;13.53;72.89;100704.53;5004491;28;21695;-69
2023/06/03 00:42:19;;;;;;;6.57;2.80;;;;;;;13.59;72.99;100691.28;5005506;28;20693;-69
2023/06/03 00:44:45;;;;;;;6.13;2.60;;;;;;;13.50;72.53;100700.09;5003711;28;20223;-69
2023/06/03 00:47:14;;;;;;;6.20;3.23;;;;;;;13.43;73.62;100687.63;4999552;28;20289;-69
2023/06/03 00:49:41;;;;;;;5.77;2.93;;;;;;;13.39;73.88;100694.72;5003201;28;20579;-68
2023/06/03 00:52:07;;;;;;;10.40;2.87;;;;;;;13.44;73.94;100698.28;5006152;28;20218;-70
2023/06/03 00:54:34;;;;;;;5.87;3.20;;;;;;;13.35;74.09;100692.03;5004152;28;20246;-70
2023/06/03 00:57:02;;;;;;;7.97;3.27;;;;;;;13.23;75.01;100694.59;5000469;28;20197;-69
2023/06/03 00:59:28;;;;;;;4.93;2.97;;;;;;;13.28;75.02;100691.09;4999307;28;20294;-69
2023/06/03 01:01:55;;;;;;;7.07;3.07;;;;;;;13.25;74.87;100690.19;4999162;28;20289;-69
2023/06/03 01:04:25;;;;;;;7.30;2.70;;;;;;;13.10;75.72;100682.94;5002927;28;20202;-71
2023/06/03 01:07:14;;;;;;;7.60;2.80;;;;;;;13.10;76.02;100690.91;5007908;28;20203;-71
2023/06/03 01:10:07;;;;;;;5.70;3.60;;;;;;;12.92;76.96;100689.00;5006195;28;20204;-70
2023/06/03 01:12:51;;;;;;;7.80;3.20;;;;;;;12.85;77.29;100698.69;4996543;28;20294;-72
2023/06/03 01:15:20;;;;;;;5.20;2.97;;;;;;;12.81;77.91;100698.66;5003085;28;20703;-71
2023/06/03 01:17:52;;;;;;;7.67;3.20;;;;;;;12.81;78.10;100693.34;4999783;28;20193;-72
2023/06/03 01:20:26;;;;;;;5.47;2.97;;;;;;;12.74;78.08;100687.03;4997881;28;20314;-70
2023/06/03 01:23:15;;;;;;;5.57;3.10;;;;;;;12.78;79.74;100688.84;5003848;28;20682;-70
2023/06/03 01:25:41;;;;;;;9.50;3.50;;;;;;;12.84;77.58;100693.38;4997515;28;20230;-70
2023/06/03 01:28:08;;;;;;;7.77;3.73;;;;;;;12.76;79.00;100682.63;4999796;28;20204;-69
2023/06/03 01:30:35;;;;;;;9.80;3.70;;;;;;;12.73;78.79;100684.38;5004773;28;20228;-69
2023/06/03 01:33:03;;;;;;;6.70;3.33;;;;;;;12.72;78.26;100671.97;5006214;28;20222;-70
2023/06/03 01:35:30;;;;;;;5.53;3.30;;;;;;;12.73;78.76;100673.75;4996655;28;20342;-70
2023/06/03 01:37:57;;;;;;;6.50;3.40;;;;;;;12.67;78.83;100677.25;4995493;28;20237;-70
2023/06/03 01:40:24;;;;;;;6.93;3.10;;;;;;;12.63;78.95;100667.47;4998693;28;20226;-70
2023/06/03 01:42:50;;;;;;;7.17;3.63;;;;;;;12.65;79.05;100672.78;5008003;28;20750;-69
2023/06/03 01:45:16;;;;;;;11.63;3.37;;;;;;;12.84;77.62;100678.31;4999280;28;20232;-69
2023/06/03 01:47:43;;;;;;;8.37;3.87;;;;;;;12.82;77.58;100680.06;5006862;28;20283;-70
2023/06/03 01:50:10;;;;;;;7.37;3.40;;;;;;;12.93;76.81;100673.94;5007611;28;20258;-69
2023/06/03 01:52:36;;;;;;;5.97;3.47;;;;;;;12.84;76.78;100678.31;5009392;28;20218;-69
2023/06/03 01:55:03;;;;;;;7.10;3.50;;;;;;;12.76;77.71;100666.69;4995620;28;20230;-68
2023/06/03 01:57:30;;;;;;;6.53;4.03;;;;;;;12.66;77.91;100675.47;5001176;28;20210;-69
2023/06/03 01:59:56;;;;;;;7.53;3.93;;;;;;;12.62;78.74;100660.38;5008099;28;20202;-69
2023/06/03 02:02:23;;;;;;;8.80;3.70;;;;;;;12.65;78.29;100664.81;5006591;28;20195;-69
2023/06/03 02:04:51;;;;;;;7.13;3.60;;;;;;;12.55;78.51;100661.19;5003659;28;20265;-70
2023/06/03 02:07:18;;;;;;;6.60;3.40;;;;;;;12.57;78.70;100659.44;5004098;28;20697;-70
2023/06/03 02:09:44;;;;;;;7.40;3.60;;;;;;;12.46;79.23;100659.34;5011448;28;20233;-69
2023/06/03 02:12:10;;;;;;;6.63;3.87;;;;;;;12.40;80.28;100655.72;5006150;28;20220;-69
2023/06/03 02:14:37;;;;;;;8.27;4.00;;;;;;;12.38;80.01;100661.00;5000915;28;20225;-70
2023/06/03 02:17:04;;;;;;;6.73;3.50;;;;;;;12.33;80.18;100665.38;5010973;28;20285;-70
2023/06/03 02:19:31;;;;;;;6.83;4.17;;;;;;;12.38;79.91;100657.47;5011407;28;20203;-69
2023/06/03 02:21:57;;;;;;;11.00;4.27;;;;;;;12.38;80.08;100661.00;5003322;28;20196;-69
2023/06/03 02:24:28;;;;;;;9.43;4.10;;;;;;;12.34;80.36;100653.88;5008031;28;20279;-68
2023/06/03 02:26:56;;;;;;;7.10;4.03;;;;;;;12.27;81.36;100646.72;5011540;28;20283;-70
2023/06/03 02:29:25;;;;;;;7.13;4.20;;;;;;;12.17;81.78;100653.72;5006750;28;20207;-69
2023/06/03 02:31:53;;;;;;;5.97;3.77;;;;;;;12.23;81.54;100658.19;5006486;28;20217;-69
2023/06/03 02:34:20;;;;;;;9.93;3.60;;;;;;;12.14;81.44;100650.13;4997454;28;20298;-69
2023/06/03 02:36:47;;;;;;;6.10;4.03;;;;;;;12.17;81.79;100650.16;5008436;28;20731;-70
2023/06/03 02:39:14;;;;;;;6.43;3.97;;;;;;;12.21;81.30;100660.84;5010445;28;20202;-71
2023/06/03 02:41:42;;;;;;;7.47;4.20;;;;;;;12.19;81.37;100657.28;5002498;28;20199;-70
2023/06/03 02:44:10;;;;;;;6.47;3.90;;;;;;;12.32;80.83;100654.75;5003321;28;20234;-69
2023/06/03 02:46:37;;;;;;;5.90;3.80;;;;;;;12.24;81.17;100654.66;5010316;28;20206;-70
2023/06/03 02:49:05;;;;;;;7.13;4.10;;;;;;;12.14;81.49;100655.44;5010366;28;20244;-70
2023/06/03 02:51:32;;;;;;;6.80;4.10;;;;;;;12.17;81.76;100656.38;5007280;28;20291;-70
2023/06/03 02:53:59;;;;;;;8.03;3.90;;;;;;;12.37;80.03;100661.88;5003452;28;20202;-69
2023/06/03 02:56:26;;;;;;;10.00;4.93;;;;;;;12.44;79.48;100665.53;5009899;28;20603;-69
2023/06/03 02:58:52;;;;;;;8.07;4.40;;;;;;;12.40;79.55;100667.22;5006841;28;20228;-70
2023/06/03 03:01:19;;;;;;;6.80;4.50;;;;;;;12.43;79.19;100664.63;5007502;28;20647;-70
2023/06/03 03:03:46;;;;;;;10.83;4.50;;;;;;;12.58;77.63;100678.94;5011722;28;20206;-70
2023/06/03 03:06:16;;;;;;;7.00;4.00;;;;;;;12.56;78.17;100676.25;5009468;28;20652;-69
2023/06/03 03:08:42;;;;;;;7.57;3.97;;;;;;;12.44;78.75;100682.34;5006568;28;20573;-69
2023/06/03 03:11:09;;;;;;;7.80;3.70;;;;;;;12.33;79.50;100683.97;5002386;28;20266;-69
2023/06/03 03:13:36;;;;;;;6.27;3.90;;;;;;;12.29;80.22;100683.94;5009301;28;20218;-70
2023/06/03 03:16:03;;;;;;;9.10;4.30;;;;;;;12.36;79.67;100683.13;5000001;28;20223;-69
2023/06/03 03:18:32;;;;;;;10.27;4.50;;;;;;;12.57;77.96;100688.66;5007057;28;20203;-71
2023/06/03 03:21:01;;;;;;;6.00;3.83;;;;;;;12.62;77.69;100689.59;5001591;28;20209;-71
2023/06/03 03:23:29;;;;;;;6.37;3.87;;;;;;;12.74;76.54;100692.38;5002898;28;20244;-70
2023/06/03 03:25:57;;;;;;;7.87;4.10;;;;;;;12.78;76.04;100699.47;5006901;28;20227;-70
2023/06/03 03:28:24;;;;;;;7.97;4.20;;;;;;;12.69;76.49;100694.09;5008962;28;20197;-68
2023/06/03 03:30:51;;;;;;;6.57;3.63;;;;;;;12.67;76.71;100695.84;5004965;28;20246;-69
2023/06/03 03:33:17;;;;;;;9.53;4.07;;;;;;;12.68;76.72;100697.63;5002331;28;20578;-69
2023/06/03 03:35:44;;;;;;;8.40;4.17;;;;;;;12.86;75.42;100696.94;5010361;28;20221;-69
2023/06/03 03:38:11;;;;;;;8.87;4.20;;;;;;;12.86;75.10;100697.81;5008751;28;20210;-69
2023/06/03 03:40:38;;;;;;;10.47;4.00;;;;;;;12.95;74.45;100707.63;5008797;28;20203;-69
2023/06/03 03:43:18;;;;;;;8.93;3.77;;;;;;;12.97;74.23;100695.25;5002261;28;20193;-69
2023/06/03 03:45:45;;;;;;;6.57;3.60;;;;;;;12.97;74.27;100697.91;5006282;28;20252;-69
2023/06/03 03:48:16;;;;;;;6.33;4.13;;;;;;;12.98;74.02;100702.34;5010785;28;20209;-69
2023/06/03 03:50:44;;;;;;;6.07;3.50;;;;;;;13.04;74.05;100698.84;5006749;28;20655;-68
2023/06/03 03:53:13;;;;;;;7.20;3.80;;;;;;;13.02;73.92;100703.25;5008108;28;20251;-68
2023/06/03 03:55:46;;;;;;;8.67;4.00;;;;;;;13.11;73.48;100690.03;5004766;28;20766;-69
2023/06/03 03:58:23;;;;;;;10.20;4.07;;;;;;;13.12;72.72;100695.34;5010297;28;20283;-70
2023/06/03 04:00:51;;;;;;;8.80;4.00;;;;;;;13.07;73.32;100697.09;5002532;28;20282;-70
2023/06/03 04:03:19;;;;;;;6.00;3.90;;;;;;;13.08;72.82;100701.53;5006370;28;20603;-68
2023/06/03 04:05:47;;;;;;;8.37;3.80;;;;;;;13.10;72.91;100701.53;5005798;28;20776;-68
2023/06/03 04:08:39;;;;;;;10.20;3.97;;;;;;;13.16;72.50;100701.59;5009490;28;20779;-67
2023/06/03 04:11:08;;;;;;;8.10;3.77;;;;;;;13.14;72.39;100704.22;4995748;28;20249;-68
2023/06/03 04:13:37;;;;;;;5.50;3.30;;;;;;;13.26;71.74;100699.94;4997363;28;20226;-69
2023/06/03 04:16:10;;;;;;;7.07;3.67;;;;;;;13.28;71.36;100707.06;5006509;28;20277;-68
2023/06/03 04:18:40;;;;;;;7.23;3.80;;;;;;;13.35;71.13;100690.25;5008112;28;20203;-68
2023/06/03 04:21:14;;;;;;;6.27;3.30;;;;;;;13.46;70.16;100699.19;4999358;28;20232;-68
2023/06/03 04:23:41;;;;;;;6.47;4.40;;;;;;;13.53;69.60;100694.78;5000897;28;20191;-68
2023/06/03 04:26:09;;;;;;;6.10;3.37;;;;;;;13.64;68.89;100700.22;5008376;28;20226;-67
2023/06/03 04:28:38;;;;;;;7.03;3.27;;;;;;;13.63;69.06;100696.66;4993984;28;20205;-68
2023/06/03 04:31:04;;;;;;;5.50;3.10;;;;;;;13.71;68.60;100696.69;5005290;28;20477;-69
2023/06/03 04:33:32;;;;;;;6.03;3.17;;;;;;;13.74;68.38;100699.38;5009776;28;20229;-69
2023/06/03 04:35:58;;;;;;;9.83;3.37;;;;;;;13.80;67.81;100702.06;4999443;28;20227;-69
2023/06/03 04:38:25;;;;;;;7.33;3.33;;;;;;;13.87;67.58;100706.53;5007931;28;20200;-67
2023/06/03 04:40:51;;;;;;;6.07;3.67;;;;;;;13.87;67.24;100702.97;5001099;28;20195;-68
2023/06/03 04:43:22;;;;;;;4.40;3.33;;;;;;;13.93;67.08;100703.00;5005163;28;20278;-67
2023/06/03 04:45:49;;;;;;;5.57;3.23;;;;;;;14.01;66.59;100704.84;5005837;28;20224;-68
2023/06/03 04:48:16;;;;;;;5.23;3.17;;;;;;;14.06;66.08;100708.41;5000626;28;20285;-68
2023/06/03 04:50:44;;;;;;;4.47;3.00;;;;;;;14.09;65.77;100711.09;4996785;28;20221;-69
2023/06/03 04:53:11;;;;;;;6.77;3.40;;;;;;;14.19;65.35;100709.34;5002905;28;20720;-67
2023/06/03 04:55:45;;;;;;;8.50;3.20;;;;;;;14.20;64.22;100713.78;4996922;28;20757;-68
2023/06/03 04:58:18;;;;;;;6.87;2.90;;;;;;;14.29;64.34;100710.25;4998386;28;20246;-69
2023/06/03 05:00:48;;;;;;;7.10;3.10;;;;;;;14.33;63.60;100714.69;5001582;28;20220;-67
2023/06/03 05:03:16;;;;;;;5.07;3.13;;;;;;;14.37;63.21;100714.72;5000166;28;20198;-67
2023/06/03 05:05:43;;;;;;;8.17;3.37;;;;;;;14.45;62.48;100712.13;5001969;28;20713;-68
2023/06/03 05:08:10;;;;;;;3.90;2.77;;;;;;;14.50;62.61;100717.47;5004029;28;20753;-65
2023/06/03 05:10:37;;;;;;;8.33;3.10;;;;;;;14.55;61.75;100713.03;5003737;28;20227;-67
2023/06/03 05:13:07;;;;;;;4.87;2.83;;;;;;;14.58;61.59;100702.38;5000098;28;20245;-68
2023/06/03 05:15:35;;;;;;;5.00;2.80;;;;;;;14.64;61.63;100705.06;4994654;28;20220;-65
2023/06/03 05:18:02;;;;;;;8.07;3.27;;;;;;;14.75;60.03;100708.63;4997247;28;20196;-65
2023/06/03 05:20:30;;;;;;;7.23;2.97;;;;;;;14.77;59.75;100717.50;5011565;28;20206;-68
2023/06/03 05:22:56;;;;;;;5.90;2.90;;;;;;;14.77;59.62;100712.19;5007552;28;20208;-67
2023/06/03 05:25:23;;;;;;;4.47;3.07;;;;;;;14.80;59.54;100711.28;5012026;28;20339;-67
2023/06/03 05:27:49;;;;;;;4.90;2.87;;;;;;;14.94;59.79;100709.56;5006195;28;20197;-67
2023/06/03 05:30:29;;;;;;;6.97;2.80;;;;;;;15.10;59.05;100713.09;5004015;28;20275;-67
2023/06/03 05:32:55;;;;;;;5.47;3.17;;;;;;;15.22;57.50;100703.34;5006437;28;20219;-65
2023/06/03 05:35:22;;;;;;;6.80;2.80;;;;;;;15.26;55.82;100707.78;5006345;28;20217;-67
2023/06/03 05:37:48;;;;;;;7.43;2.60;;;;;;;15.29;55.95;100704.22;5004182;28;20490;-66
2023/06/03 05:40:15;;;;;;;5.23;3.40;;;;;;;15.35;55.18;100709.53;5011543;28;20196;-68
2023/06/03 05:42:41;;;;;;;3.93;2.47;;;;;;;15.42;55.42;100705.97;5009880;28;20195;-67
2023/06/03 05:45:08;;;;;;;3.10;2.37;;;;;;;15.59;54.54;100708.63;5009883;28;20220;-65
2023/06/03 05:47:35;;;;;;;4.40;2.37;;;;;;;15.83;53.15;100705.91;5003778;28;20196;-67
2023/06/03 05:50:01;;;;;;;4.03;2.43;;;;;;;16.40;51.94;100706.56;5011227;28;20360;-67
2023/06/03 05:52:28;;;;;;;5.70;2.30;;;;;;;16.32;51.17;100702.16;5012512;28;20216;-66
2023/06/03 05:54:54;;;;;;;7.13;2.40;;;;;;;16.69;50.18;100710.91;5010865;28;20216;-66
2023/06/03 05:57:21;;;;;;;5.40;2.37;;;;;;;16.59;49.96;100708.25;5005742;28;20699;-64
2023/06/03 05:59:48;;;;;;;3.73;2.20;;;;;;;16.41;49.61;100710.13;5007297;28;20200;-65
2023/06/03 06:02:15;;;;;;;2.40;1.83;;;;;;;16.36;49.82;100710.16;5011500;28;20208;-65
2023/06/03 06:04:41;;;;;;;4.23;2.17;;;;;;;16.66;49.42;100710.91;5005799;28;20256;-66
2023/06/03 06:07:08;;;;;;;6.03;2.30;;;;;;;16.94;48.94;100707.16;5006352;28;20192;-65
2023/06/03 06:09:34;;;;;;;3.83;2.50;;;;;;;17.09;47.88;100704.34;5011216;28;20201;-65
2023/06/03 06:12:04;;;;;;;7.30;2.40;;;;;;;17.29;46.96;100709.56;5006909;28;20197;-65
2023/06/03 06:14:31;;;;;;;4.73;2.30;;;;;;;17.32;47.18;100700.59;5005750;28;20696;-66
2023/06/03 06:16:57;;;;;;;5.60;2.27;;;;;;;17.29;46.62;100706.00;5000860;28;20201;-66
2023/06/03 06:19:24;;;;;;;3.70;2.20;;;;;;;17.25;46.59;100699.78;5008494;28;20487;-65
2023/06/03 06:21:50;;;;;;;6.70;2.00;;;;;;;17.13;47.20;100703.44;5009894;28;20664;-66
2023/06/03 06:24:17;;;;;;;4.23;2.20;;;;;;;17.17;46.37;100705.16;5008163;28;20219;-66
2023/06/03 06:26:43;;;;;;;5.70;2.20;;;;;;;17.49;45.95;100707.56;5012317;28;20204;-66
2023/06/03 06:29:10;;;;;;;4.33;2.17;;;;;;;17.46;45.18;100714.75;5009934;28;20206;-66
2023/06/03 06:31:36;;;;;;;4.90;2.63;;;;;;;17.55;45.51;100714.66;5001485;28;20287;-65
2023/06/03 06:34:03;;;;;;;2.97;2.00;;;;;;;17.67;45.45;100713.69;5009668;28;20365;-67
2023/06/03 06:36:39;;;;;;;3.57;2.00;;;;;;;17.75;45.71;100709.13;5007829;28;20200;-66
2023/06/03 06:39:31;;;;;;;4.60;2.03;;;;;;;18.05;44.91;100707.91;5009641;28;20199;-66
2023/06/03 06:42:10;;;;;;;5.00;2.33;;;;;;;18.35;43.56;100709.28;4999665;28;20204;-66
2023/06/03 06:44:47;;;;;;;6.97;2.50;;;;;;;18.62;43.52;100716.13;4993087;28;20251;-66
2023/06/03 06:47:20;;;;;;;4.60;2.00;;;;;;;18.75;42.41;100723.06;5003176;28;20686;-66
2023/06/03 06:49:48;;;;;;;4.03;2.00;;;;;;;18.86;42.01;100710.41;4995022;28;20291;-66
2023/06/03 06:52:14;;;;;;;5.50;2.20;;;;;;;18.62;41.75;100718.81;5003292;28;20236;-66
2023/06/03 06:54:42;;;;;;;4.70;2.13;;;;;;;18.68;42.03;100718.72;5008411;28;20231;-66
2023/06/03 06:57:08;;;;;;;3.90;2.33;;;;;;;18.78;41.62;100715.84;5008795;28;20287;-66
2023/06/03 06:59:35;;;;;;;7.70;2.30;;;;;;;18.97;41.92;100703.06;5006815;28;20207;-66
2023/06/03 07:02:01;;;;;;;6.47;2.20;;;;;;;19.02;41.51;100708.34;5006402;28;20204;-66
2023/06/03 07:04:28;;;;;;;4.70;2.20;;;;;;;19.29;41.06;100699.84;5005678;28;20249;-65
2023/06/03 07:06:54;;;;;;;4.90;2.60;;;;;;;19.71;40.15;100698.22;5004176;28;20196;-65
2023/06/03 07:09:20;;;;;;;6.40;2.10;;;;;;;21.30;37.86;100705.50;5008609;28;20212;-66
2023/06/03 07:11:47;;;;;;;5.03;2.00;;;;;;;22.76;33.93;100706.69;5005498;28;20660;-65
2023/06/03 07:14:14;;;;;;;5.47;2.10;;;;;;;22.15;34.34;100710.38;5004665;28;20216;-67
2023/06/03 07:16:41;;;;;;;5.67;2.30;;;;;;;22.25;34.25;100705.59;5002675;28;20300;-68
2023/06/03 07:19:07;;;;;;;5.53;2.37;;;;;;;21.87;34.75;100712.94;5006988;28;20196;-66
2023/06/03 07:21:34;;;;;;;3.23;2.17;;;;;;;22.40;33.65;100707.81;5003484;28;20702;-67
2023/06/03 07:24:01;;;;;;;7.00;2.40;;;;;;;22.48;33.76;100712.09;5006449;28;20275;-65
2023/06/03 07:26:28;;;;;;;3.00;2.03;;;;;;;23.47;32.91;100709.81;5006911;28;20366;-66
2023/06/03 07:28:57;;;;;;;7.20;2.87;;;;;;;24.43;30.80;100711.78;5006316;28;20392;-67
2023/06/03 07:31:24;;;;;;;7.50;2.10;;;;;;;25.17;29.48;100711.50;5004076;28;20207;-66
2023/06/03 07:33:54;;;;;;;6.30;2.50;;;;;;;25.59;29.03;100705.19;5006688;28;20220;-67
2023/06/03 07:36:22;;;;;;;4.30;2.23;;;;;;;26.19;27.74;100712.47;5006165;28;20243;-66
2023/06/03 07:39:02;;;;;;;6.23;2.40;;;;;;;25.70;27.97;100721.06;5002953;28;20211;-66
2023/06/03 07:41:59;;;;;;;5.20;2.50;;;;;;;24.82;29.83;100723.78;5006086;28;20201;-66
2023/06/03 07:44:43;;;;;;;3.73;2.40;;;;;;;25.29;28.69;100719.13;4994662;28;20691;-66
2023/06/03 07:47:14;;;;;;;5.47;2.67;;;;;;;25.80;27.67;100717.88;5001649;28;20200;-67
2023/06/03 07:49:48;;;;;;;6.53;2.77;;;;;;;25.28;28.49;100730.03;5004834;28;20200;-66
2023/06/03 07:52:18;;;;;;;9.40;3.37;;;;;;;25.86;28.09;100722.13;5005283;28;20680;-66
2023/06/03 07:54:45;;;;;;;5.73;2.60;;;;;;;26.13;28.01;100733.59;5003065;28;20228;-66
2023/06/03 07:57:13;;;;;;;3.80;2.37;;;;;;;26.02;27.95;100730.50;5003330;28;20211;-67
2023/06/03 07:59:51;;;;;;;3.40;2.33;;;;;;;23.71;30.98;100731.53;5004995;28;20196;-67
2023/06/03 08:02:18;;;;;;;8.47;3.60;;;;;;;23.77;31.03;100737.66;4999429;28;20208;-66
2023/06/03 08:04:45;;;;;;;5.43;3.07;;;;;;;22.74;33.50;100740.97;4999643;28;20654;-66
2023/06/03 08:07:13;;;;;;;5.73;2.70;;;;;;;22.65;34.32;100732.28;5005025;28;20200;-66
2023/06/03 08:09:40;;;;;;;7.20;3.07;;;;;;;23.40;32.64;100734.34;5004153;28;20215;-66
2023/06/03 08:12:11;;;;;;;4.80;2.70;;;;;;;23.07;33.34;100733.66;5001715;28;20215;-68
2023/06/03 08:14:39;;;;;;;5.07;3.00;;;;;;;22.06;34.68;100730.44;5006316;28;20247;-67
2023/06/03 08:17:14;;;;;;;7.70;3.83;;;;;;;22.55;34.93;100725.41;5002437;28;20208;-67
2023/06/03 08:19:45;;;;;;;8.97;3.57;;;;;;;23.06;34.17;100720.19;5004777;28;20210;-66
2023/06/03 08:22:29;;;;;;;8.20;2.87;;;;;;;23.02;33.93;100722.13;5005872;28;20197;-66
2023/06/03 08:24:58;;;;;;;6.50;3.20;;;;;;;21.84;35.41;100726.50;4995362;28;20227;-66
2023/06/03 08:27:25;;;;;;;8.10;3.23;;;;;;;22.07;36.29;100729.50;5006392;28;20221;-66
2023/06/03 08:29:52;;;;;;;7.80;3.10;;;;;;;22.26;35.94;100727.13;5004649;28;20230;-66
2023/06/03 08:32:19;;;;;;;7.97;3.03;;;;;;;22.47;35.89;100721.13;5004987;28;20299;-67
2023/06/03 08:34:46;;;;;;;8.05;3.20;;;;;;;22.28;36.05;100724.41;5002082;28;20220;-66
2023/06/03 08:37:12;;;;;;;8.73;3.37;;;;;;;22.17;36.34;100725.59;5004831;28;20686;-67
2023/06/03 08:39:39;;;;;;;6.30;3.20;;;;;;;21.42;37.40;100731.22;5006031;28;20196;-66
2023/06/03 08:42:07;;;;;;;5.87;2.80;;;;;;;21.31;38.49;100730.63;5002670;28;20209;-68
2023/06/03 08:44:53;;;;;;;5.87;2.67;;;;;;;21.89;37.59;100720.06;5005900;28;20212;-66
2023/06/03 08:47:55;;;;;;;7.63;2.95;;;;;;;22.51;36.34;100713.81;5006393;28;20204;-66
2023/06/03 08:50:24;;;;;;;6.50;2.47;;;;;;;22.78;35.77;100721.03;4974890;28;20669;-66
2023/06/03 08:52:55;;;;;;;6.65;3.60;;;;;;;22.60;35.70;100718.91;5002696;28;20200;-66
2023/06/03 08:55:22;;;;;;;4.68;3.38;;;;;;;22.97;35.61;100731.31;5004222;28;20260;-68
2023/06/03 08:58:03;;;;;;;4.72;2.55;;;;;;;23.14;35.02;100726.22;5004908;28;20274;-67
2023/06/03 09:00:30;;;;;;;5.20;2.58;;;;;;;23.43;34.58;100715.31;5003883;28;20223;-65
2023/06/03 09:02:57;;;;;;;6.43;2.80;;;;;;;22.99;35.11;100724.03;5000441;28;20672;-65
2023/06/03 09:05:25;;;;;;;12.98;3.05;;;;;;;22.40;35.87;100726.72;5006807;28;20270;-65
2023/06/03 09:07:52;;;;;;;6.82;3.15;;;;;;;22.50;36.81;100723.72;5006551;28;20200;-66
2023/06/03 09:10:25;;;;;;;6.40;2.85;;;;;;;22.89;36.58;100723.47;5006947;28;20208;-67
2023/06/03 09:12:56;;;;;;;7.53;3.08;;;;;;;22.92;36.56;100728.75;4996082;28;20636;-66
2023/06/03 09:15:25;;;;;;;11.27;3.60;;;;;;;22.78;36.21;100726.44;5002980;28;20228;-66
2023/06/03 09:17:52;;;;;;;4.97;2.60;;;;;;;23.40;35.12;100725.38;5006145;28;20287;-66
2023/06/03 09:20:18;;;;;;;7.38;3.00;;;;;;;22.51;36.45;100721.91;5009917;28;20231;-65
2023/06/03 09:22:46;;;;;;;5.75;2.88;;;;;;;22.81;36.85;100728.19;5004564;28;20205;-66
2023/06/03 09:25:13;;;;;;;5.68;2.92;;;;;;;23.51;34.84;100720.47;5001850;28;20219;-66
2023/06/03 09:27:40;;;;;;;10.15;3.33;;;;;;;23.67;34.86;100724.47;4993340;28;20275;-66
2023/06/03 09:30:08;;;;;;;7.68;4.53;;;;;;;23.51;34.71;100725.88;5009788;28;20207;-66
2023/06/03 09:32:36;;;;;;;13.60;4.13;;;;;;;23.67;34.66;100719.06;5008675;28;20219;-67
2023/06/03 09:35:06;;;;;;;5.07;3.65;;;;;;;23.46;34.88;100725.16;5004695;28;20274;-65
2023/06/03 09:37:33;;;;;;;5.00;3.10;;;;;;;23.24;35.37;100725.00;4996046;28;20208;-65
2023/06/03 09:40:05;;;;;;;7.13;3.00;;;;;;;23.12;36.05;100723.56;4995239;28;20220;-66
2023/06/03 09:42:44;;;;;;;3.95;3.00;;;;;;;23.61;35.48;100713.81;4989968;28;20666;-65
2023/06/03 09:45:30;;;;;;;6.57;3.05;;;;;;;23.35;35.53;100730.94;4996638;28;20215;-65
2023/06/03 09:47:58;;;;;;;4.88;2.95;;;;;;;23.51;35.76;100719.59;5003998;28;20199;-65
2023/06/03 09:50:30;;;;;;;5.40;2.95;;;;;;;23.26;35.38;100727.66;5007689;28;20207;-66
2023/06/03 09:52:57;;;;;;;6.93;3.20;;;;;;;23.18;36.04;100725.19;5005502;28;20211;-65
2023/06/03 09:55:34;;;;;;;9.00;3.17;;;;;;;23.35;36.20;100720.13;5007678;28;20311;-65
2023/06/03 09:58:06;;;;;;;4.95;2.92;;;;;;;23.92;34.95;100716.31;5009577;28;20474;-65
2023/06/03 10:00:46;;;;;;;6.88;2.92;;;;;;;24.05;34.71;100723.09;5001146;28;20205;-65
2023/06/03 10:03:12;;;;;;;5.25;3.00;;;;;;;24.17;34.61;100719.03;4997063;28;20196;-65
2023/06/03 10:05:41;;;;;;;5.20;2.97;;;;;;;24.40;34.40;100720.88;4998111;28;20279;-68
2023/06/03 10:08:07;;;;;;;6.50;2.85;;;;;;;24.22;34.80;100716.16;4999320;28;20205;-66
2023/06/03 10:10:35;;;;;;;5.05;3.08;;;;;;;23.70;35.08;100716.22;4995633;28;20688;-65
2023/06/03 10:13:19;;;;;;;7.50;3.13;;;;;;;23.51;35.62;100708.78;5012193;28;20192;-65
2023/06/03 10:15:45;;;;;;;9.25;2.90;;;;;;;23.72;36.50;100714.34;4993530;28;20232;-66
2023/06/03 10:18:12;;;;;;;9.48;3.30;;;;;;;23.80;35.40;100710.47;5002013;28;20762;-66
2023/06/03 10:20:41;;;;;;;6.53;3.35;;;;;;;23.81;34.95;100712.25;5011492;28;20192;-66
2023/06/03 10:23:10;;;;;;;5.95;3.38;;;;;;;23.36;36.02;100716.47;5010815;28;20672;-67
2023/06/03 10:25:45;;;;;;;6.53;3.20;;;;;;;23.61;36.63;100705.72;5001498;28;20221;-65
2023/06/03 10:28:12;;;;;;;5.70;3.25;;;;;;;23.93;36.01;100711.81;4992438;28;20199;-66
2023/06/03 10:30:40;;;;;;;4.50;3.00;;;;;;;24.25;35.10;100703.38;4992856;28;20673;-66
2023/06/03 10:33:08;;;;;;;4.85;3.10;;;;;;;24.71;33.70;100711.56;4992746;28;20255;-65
2023/06/03 10:35:36;;;;;;;7.32;3.35;;;;;;;23.93;34.85;100700.97;5011389;28;20348;-66
2023/06/03 10:38:04;;;;;;;4.97;3.95;;;;;;;23.47;35.09;100736.84;5007162;28;20204;-66
2023/06/03 10:40:31;;;;;;;7.40;4.15;;;;;;;23.19;35.55;100710.75;5004079;28;20736;-65
2023/06/03 10:42:58;;;;;;;5.50;3.55;;;;;;;23.66;35.92;100700.16;5012201;28;20203;-65
2023/06/03 10:45:27;;;;;;;4.97;3.35;;;;;;;23.58;35.90;100705.81;5011625;28;20220;-66
2023/06/03 10:48:00;;;;;;;6.05;3.25;;;;;;;23.79;34.97;100703.31;4995888;28;20232;-65
2023/06/03 10:50:43;;;;;;;4.93;3.17;;;;;;;23.69;35.35;100698.25;5011281;28;20704;-65
2023/06/03 10:53:27;;;;;;;6.43;3.80;;;;;;;23.40;35.87;100701.91;5002807;28;20192;-65
2023/06/03 10:56:16;;;;;;;4.20;3.28;;;;;;;23.88;36.82;100697.56;4992750;28;20227;-66
2023/06/03 10:58:46;;;;;;;6.75;3.38;;;;;;;24.09;35.14;100710.31;4992290;28;20208;-65
2023/06/03 11:01:13;;;;;;;5.50;3.30;;;;;;;23.94;34.26;100698.22;5001974;28;20204;-66
2023/06/03 11:04:02;;;;;;;5.38;3.50;;;;;;;24.05;34.35;100724.91;5002539;28;20293;-66
2023/06/03 11:06:29;;;;;;;5.03;3.53;;;;;;;23.80;35.27;100703.25;5010373;28;20212;-68
2023/06/03 11:09:08;;;;;;;7.78;3.60;;;;;;;24.24;35.05;100698.91;5011893;28;20584;-68
2023/06/03 11:11:41;;;;;;;5.50;3.17;;;;;;;24.51;34.50;100693.41;4994951;28;20247;-68
2023/06/03 11:14:11;;;;;;;4.25;3.30;;;;;;;24.25;34.79;100699.78;4991637;28;20278;-68
2023/06/03 11:16:55;;;;;;;7.15;3.90;;;;;;;24.31;34.82;100694.16;5001951;28;20280;-68
2023/06/03 11:19:36;;;;;;;13.40;3.78;;;;;;;24.12;34.84;100699.38;5002030;28;20207;-68
2023/06/03 11:22:10;;;;;;;12.02;3.70;;;;;;;23.85;35.09;100698.56;4992147;28;20248;-68
2023/06/03 11:24:39;;;;;;;9.20;3.80;;;;;;;23.94;35.84;100692.81;4990847;28;20251;-68
2023/06/03 11:27:09;;;;;;;6.38;3.67;;;;;;;24.38;34.31;100692.97;4991733;28;20200;-68
2023/06/03 11:29:56;;;;;;;8.57;3.90;;;;;;;24.59;33.22;100704.81;4992064;28;20197;-67
2023/06/03 11:32:36;;;;;;;5.25;3.30;;;;;;;24.50;33.52;100695.25;4997133;28;20225;-68
2023/06/03 11:35:03;;;;;;;4.05;3.38;;;;;;;24.55;35.11;100700.47;4999089;28;20262;-68